Time;durP1;ratioP1;P1;durP2;ratioP2;P2;SDS_P1;SDS_P2;PMS_P1;PMS_P2;Temp;Humidity;BMP_temperature;BMP_pressure;BME280_temperature;BME280_humidity;BME280_pressure;Samples;Min_cycle;Max_cycle;Signal;HPM_P1;HPM_P2
2022/08/07 00:00:58;;;;;;;4.38;1.88;;;;;;;17.16;52.42;101481.41;5040260;28;20408;-74
2022/08/07 00:03:25;;;;;;;5.72;1.92;;;;;;;17.11;52.40;101481.53;5040090;28;20120;-76
2022/08/07 00:05:54;;;;;;;4.43;1.80;;;;;;;17.13;52.67;101478.84;5040328;28;20036;-76
2022/08/07 00:08:21;;;;;;;3.80;1.95;;;;;;;17.18;52.41;101482.22;5038974;28;20425;-76
2022/08/07 00:10:48;;;;;;;2.58;1.70;;;;;;;17.15;52.66;101474.34;5039915;28;20022;-76
2022/08/07 00:13:14;;;;;;;3.63;1.70;;;;;;;17.12;52.74;101479.78;5038919;28;20025;-77
2022/08/07 00:15:39;;;;;;;4.85;1.92;;;;;;;17.11;52.60;101484.19;5039953;28;20029;-76
2022/08/07 00:18:05;;;;;;;5.18;1.85;;;;;;;17.05;52.76;101475.56;5039977;28;20108;-76
2022/08/07 00:20:30;;;;;;;3.83;1.80;;;;;;;16.98;52.88;101473.09;5039829;28;20119;-76
2022/08/07 00:22:56;;;;;;;3.95;1.75;;;;;;;17.05;52.89;101475.56;5038482;28;20033;-76
2022/08/07 00:25:23;;;;;;;2.92;1.58;;;;;;;17.10;52.59;101479.81;5038606;28;20040;-76
2022/08/07 00:27:49;;;;;;;3.10;1.40;;;;;;;17.10;52.59;101485.09;5038774;28;20029;-76
2022/08/07 00:30:15;;;;;;;2.80;1.52;;;;;;;17.07;52.59;101481.69;5039831;28;20057;-73
2022/08/07 00:32:40;;;;;;;3.58;1.58;;;;;;;17.06;52.83;101487.91;5039554;28;20069;-73
2022/08/07 00:35:06;;;;;;;3.72;1.80;;;;;;;17.10;52.84;101479.81;5039879;28;20358;-76
2022/08/07 00:37:32;;;;;;;2.72;1.70;;;;;;;17.07;53.04;101479.03;5038283;28;20134;-73
2022/08/07 00:39:57;;;;;;;2.42;1.45;;;;;;;17.04;52.92;101485.31;5038385;28;20030;-73
2022/08/07 00:42:23;;;;;;;2.42;1.38;;;;;;;16.87;53.55;101482.28;5039760;28;20460;-73
2022/08/07 00:44:49;;;;;;;2.70;1.70;;;;;;;16.80;53.72;101481.63;5038594;28;20103;-73
2022/08/07 00:47:14;;;;;;;3.15;1.63;;;;;;;16.81;53.66;101483.34;5022346;28;20033;-73
2022/08/07 00:49:41;;;;;;;4.40;1.85;;;;;;;16.83;53.63;101478.00;5039512;28;20054;-74
2022/08/07 00:52:10;;;;;;;2.90;1.80;;;;;;;16.70;53.97;101488.06;5038676;28;20530;-74
2022/08/07 00:54:36;;;;;;;2.65;1.50;;;;;;;16.60;54.07;101478.66;5038788;28;20461;-74
2022/08/07 00:57:01;;;;;;;4.85;1.60;;;;;;;16.59;54.43;101482.22;5039907;28;20056;-74
2022/08/07 00:59:26;;;;;;;3.53;1.88;;;;;;;16.63;54.14;101473.25;5039618;28;20029;-74
2022/08/07 01:01:52;;;;;;;3.35;1.63;;;;;;;16.59;54.30;101485.72;5021857;28;20028;-74
2022/08/07 01:04:19;;;;;;;3.08;1.60;;;;;;;16.48;54.58;101480.75;5039587;28;20396;-74
2022/08/07 01:06:44;;;;;;;3.28;1.90;;;;;;;16.52;54.58;101478.88;5039445;28;20029;-74
2022/08/07 01:09:10;;;;;;;4.03;1.73;;;;;;;16.49;54.66;101477.19;5038218;28;20078;-74
2022/08/07 01:11:36;;;;;;;2.70;1.45;;;;;;;16.55;54.47;101489.38;5035747;28;20033;-74
2022/08/07 01:14:02;;;;;;;2.15;1.50;;;;;;;16.63;54.54;101481.19;5035233;28;20029;-74
2022/08/07 01:16:28;;;;;;;2.92;1.60;;;;;;;16.66;54.45;101479.34;5036337;28;20057;-74
2022/08/07 01:18:53;;;;;;;5.20;1.70;;;;;;;16.69;54.33;101483.69;5034945;28;20083;-74
2022/08/07 01:21:23;;;;;;;2.33;1.48;;;;;;;16.71;54.26;101482.72;5036027;28;20033;-74
2022/08/07 01:23:50;;;;;;;2.97;1.77;;;;;;;16.65;54.65;101479.38;5034914;28;20032;-74
2022/08/07 01:26:17;;;;;;;2.85;1.40;;;;;;;16.62;54.69;101487.44;5034842;28;20048;-74
2022/08/07 01:28:43;;;;;;;3.92;1.52;;;;;;;16.64;54.67;101485.63;5036102;28;20424;-73
2022/08/07 01:31:09;;;;;;;2.03;1.60;;;;;;;16.67;54.57;101475.75;5036183;28;20087;-74
2022/08/07 01:33:35;;;;;;;2.40;1.63;;;;;;;16.69;54.52;101475.72;5018100;28;20037;-74
2022/08/07 01:36:02;;;;;;;2.60;1.40;;;;;;;16.71;54.52;101477.41;5035967;28;20021;-74
2022/08/07 01:38:29;;;;;;;5.60;1.40;;;;;;;16.73;54.51;101480.06;5035680;28;20084;-74
2022/08/07 01:40:58;;;;;;;2.95;1.75;;;;;;;16.70;54.60;101478.31;5034636;28;20037;-74
2022/08/07 01:43:24;;;;;;;5.82;1.45;;;;;;;16.65;54.75;101482.91;5035725;28;20029;-74
2022/08/07 01:45:50;;;;;;;2.25;1.45;;;;;;;16.62;54.84;101483.00;5035873;28;20030;-74
2022/08/07 01:48:16;;;;;;;2.60;1.85;;;;;;;16.60;55.00;101481.31;5035623;28;20365;-73
2022/08/07 01:50:46;;;;;;;2.47;1.42;;;;;;;16.53;55.07;101477.09;5034524;28;20101;-73
2022/08/07 01:53:13;;;;;;;3.65;1.83;;;;;;;16.43;55.54;101482.66;5035591;28;20022;-73
2022/08/07 01:55:44;;;;;;;3.35;1.42;;;;;;;16.44;55.73;101481.75;5035474;28;20071;-73
2022/08/07 01:58:18;;;;;;;4.88;1.58;;;;;;;16.40;56.08;101488.06;5035626;28;20120;-73
2022/08/07 02:00:51;;;;;;;2.50;1.35;;;;;;;16.26;56.48;101487.56;5034122;28;20476;-73
2022/08/07 02:03:20;;;;;;;1.90;1.27;;;;;;;16.31;56.27;101483.00;5034053;28;20029;-73
2022/08/07 02:06:04;;;;;;;2.92;1.70;;;;;;;16.26;57.26;101484.91;5035326;28;20075;-73
2022/08/07 02:08:34;;;;;;;3.42;1.70;;;;;;;16.32;56.22;101482.09;5033936;28;20490;-73
2022/08/07 02:11:00;;;;;;;2.83;1.80;;;;;;;16.43;55.99;101485.28;5035154;28;20036;-73
2022/08/07 02:13:29;;;;;;;2.60;1.60;;;;;;;16.37;56.19;101484.63;5035204;28;20117;-73
2022/08/07 02:15:57;;;;;;;2.67;1.60;;;;;;;16.41;55.99;101489.78;5035192;28;20087;-73
2022/08/07 02:18:26;;;;;;;5.18;2.05;;;;;;;16.37;56.16;101484.63;5035177;28;20022;-73
2022/08/07 02:20:55;;;;;;;5.60;1.80;;;;;;;16.31;56.55;101483.00;5034733;28;20024;-73
2022/08/07 02:23:22;;;;;;;4.45;2.00;;;;;;;16.31;56.51;101485.63;5033585;28;20027;-73
2022/08/07 02:25:48;;;;;;;2.33;1.80;;;;;;;16.28;56.64;101488.41;5034827;28;20071;-73
2022/08/07 02:28:16;;;;;;;4.25;1.80;;;;;;;16.30;56.59;101491.00;5033579;28;20033;-73
2022/08/07 02:30:42;;;;;;;4.55;1.42;;;;;;;16.31;56.68;101488.28;5033829;28;20349;-74
2022/08/07 02:33:08;;;;;;;4.35;1.73;;;;;;;16.21;56.85;101486.81;5017002;28;20025;-73
2022/08/07 02:35:35;;;;;;;2.63;1.63;;;;;;;16.21;57.13;101492.13;5035110;28;20043;-74
2022/08/07 02:38:03;;;;;;;1.77;1.42;;;;;;;16.04;57.35;101495.25;5034470;28;20054;-74
2022/08/07 02:40:30;;;;;;;5.13;1.30;;;;;;;16.09;57.45;101495.13;5034667;28;20037;-74
2022/08/07 02:42:57;;;;;;;3.58;1.45;;;;;;;16.10;57.39;101491.53;5034642;28;20025;-74
2022/08/07 02:45:26;;;;;;;2.13;1.52;;;;;;;15.95;58.07;101495.47;5033486;28;20052;-74
2022/08/07 02:47:52;;;;;;;2.22;1.50;;;;;;;15.86;58.04;101490.41;5017110;28;20025;-74
2022/08/07 02:50:18;;;;;;;2.90;1.80;;;;;;;15.75;58.38;101493.34;5033116;28;20027;-74
2022/08/07 02:52:58;;;;;;;2.85;1.65;;;;;;;15.62;60.01;101484.78;5034515;28;20068;-74
2022/08/07 02:55:26;;;;;;;3.63;1.80;;;;;;;15.62;59.19;101487.44;5033160;28;20477;-74
2022/08/07 02:57:54;;;;;;;3.30;1.80;;;;;;;15.53;59.52;101491.19;5034451;28;20033;-74
2022/08/07 03:00:22;;;;;;;3.88;2.10;;;;;;;15.41;59.82;101488.84;5034436;28;20027;-73
2022/08/07 03:02:51;;;;;;;3.22;2.00;;;;;;;15.27;60.83;101488.28;5034225;28;20028;-74
2022/08/07 03:05:17;;;;;;;2.60;1.65;;;;;;;15.24;60.52;101486.59;5034303;28;20091;-74
2022/08/07 03:07:46;;;;;;;5.13;1.90;;;;;;;15.21;60.54;101489.31;5034196;28;20473;-74
2022/08/07 03:10:12;;;;;;;3.75;1.90;;;;;;;15.16;60.74;101483.28;5032927;28;20420;-74
2022/08/07 03:12:39;;;;;;;2.58;1.83;;;;;;;15.33;60.31;101485.50;5016591;28;20029;-74
2022/08/07 03:15:06;;;;;;;3.08;1.60;;;;;;;15.47;59.88;101482.53;5032808;28;20064;-73
2022/08/07 03:17:32;;;;;;;3.65;1.65;;;;;;;15.64;59.74;101479.44;5000083;28;20025;-73
2022/08/07 03:19:59;;;;;;;2.83;1.70;;;;;;;15.72;59.56;101477.53;5034112;28;20029;-74
2022/08/07 03:22:25;;;;;;;3.92;2.00;;;;;;;15.75;59.56;101474.78;5033962;28;20104;-74
2022/08/07 03:24:51;;;;;;;4.05;1.77;;;;;;;15.70;59.83;101482.84;5033976;28;20079;-74
2022/08/07 03:27:17;;;;;;;4.70;2.00;;;;;;;15.71;59.99;101479.28;5033989;28;20029;-73
2022/08/07 03:29:49;;;;;;;5.95;2.38;;;;;;;15.71;60.08;101481.94;5033951;28;20033;-73
2022/08/07 03:32:17;;;;;;;2.08;1.80;;;;;;;15.65;59.84;101476.81;5033494;28;20123;-74
2022/08/07 03:34:47;;;;;;;3.75;1.98;;;;;;;15.74;59.71;101481.88;5032074;28;20021;-74
2022/08/07 03:37:15;;;;;;;4.32;1.88;;;;;;;15.73;59.66;101481.91;5033625;28;20017;-74
2022/08/07 03:39:41;;;;;;;2.63;2.05;;;;;;;15.69;60.21;101478.47;5033855;28;20029;-74
2022/08/07 03:42:07;;;;;;;5.70;2.40;;;;;;;15.57;60.31;101485.81;5033685;28;20038;-74
2022/08/07 03:44:35;;;;;;;2.20;1.77;;;;;;;15.70;59.88;101480.19;5033703;28;20036;-74
2022/08/07 03:47:02;;;;;;;3.08;2.08;;;;;;;15.62;60.36;101482.16;5033732;28;20021;-74
2022/08/07 03:49:28;;;;;;;3.47;1.95;;;;;;;15.66;60.12;101488.28;5033522;28;20437;-74
2022/08/07 03:51:54;;;;;;;4.53;2.20;;;;;;;15.68;60.23;101482.03;5032197;28;20145;-74
2022/08/07 03:54:20;;;;;;;4.07;2.42;;;;;;;15.80;60.06;101485.25;5033392;28;20033;-74
2022/08/07 03:56:46;;;;;;;3.15;2.10;;;;;;;15.71;60.39;101483.72;5032292;28;20029;-74
2022/08/07 03:59:13;;;;;;;10.13;1.98;;;;;;;15.75;60.10;101482.72;5033348;28;20037;-74
2022/08/07 04:01:40;;;;;;;4.65;2.10;;;;;;;15.87;59.80;101487.72;5033700;28;20030;-73
2022/08/07 04:04:06;;;;;;;3.83;1.90;;;;;;;15.93;59.85;101497.31;5032297;28;20028;-74
2022/08/07 04:06:33;;;;;;;4.78;2.15;;;;;;;15.99;59.58;101502.44;5032131;28;20033;-73
2022/08/07 04:09:00;;;;;;;3.80;1.92;;;;;;;16.05;59.75;101496.13;5016057;28;20040;-73
2022/08/07 04:11:26;;;;;;;5.43;2.22;;;;;;;16.15;59.08;101501.09;5033292;28;20106;-73
2022/08/07 04:13:52;;;;;;;3.72;2.28;;;;;;;16.09;59.77;101501.28;5015698;28;20049;-73
2022/08/07 04:16:19;;;;;;;4.65;2.38;;;;;;;16.17;59.67;101506.38;5032272;28;20033;-74
2022/08/07 04:18:45;;;;;;;4.82;2.22;;;;;;;16.29;59.39;101514.00;5033348;28;20116;-73
2022/08/07 04:21:11;;;;;;;3.15;2.15;;;;;;;16.30;59.34;101507.78;5033211;28;20108;-73
2022/08/07 04:23:37;;;;;;;4.03;2.20;;;;;;;16.41;59.24;101504.84;5032215;28;20152;-73
2022/08/07 04:26:04;;;;;;;3.83;2.33;;;;;;;16.46;59.02;101502.91;5031839;28;20114;-73
2022/08/07 04:28:30;;;;;;;4.60;2.40;;;;;;;16.48;59.16;101514.38;5033129;28;20112;-73
2022/08/07 04:30:56;;;;;;;3.85;2.40;;;;;;;16.56;58.83;101511.50;5032084;28;20147;-73
2022/08/07 04:33:23;;;;;;;6.90;2.75;;;;;;;16.54;58.93;101511.53;5031778;28;20029;-74
2022/08/07 04:35:49;;;;;;;4.72;2.53;;;;;;;16.67;58.77;101515.56;5033152;28;20033;-73
2022/08/07 04:38:14;;;;;;;4.63;2.35;;;;;;;16.82;58.68;101508.97;5032848;28;20056;-73
2022/08/07 04:40:43;;;;;;;3.88;2.60;;;;;;;17.08;58.42;101507.34;5031856;28;20127;-73
2022/08/07 04:43:08;;;;;;;6.03;2.38;;;;;;;17.25;57.62;101510.31;5032951;28;20377;-73
2022/08/07 04:46:01;;;;;;;7.68;2.83;;;;;;;17.30;58.49;101503.06;5036319;28;20029;-73
2022/08/07 04:48:37;;;;;;;5.75;2.15;;;;;;;17.29;57.86;101511.97;5037007;28;20084;-73
2022/08/07 04:51:11;;;;;;;4.20;2.17;;;;;;;17.20;58.10;101514.91;5035776;28;20029;-73
2022/08/07 04:53:57;;;;;;;3.45;2.28;;;;;;;17.35;58.68;101517.06;5036617;28;20026;-73
2022/08/07 04:56:38;;;;;;;3.88;2.28;;;;;;;17.33;58.73;101516.25;5035378;28;20033;-73
2022/08/07 04:59:11;;;;;;;7.70;2.45;;;;;;;17.36;58.33;101512.66;5036729;28;20025;-73
2022/08/07 05:01:48;;;;;;;4.45;2.00;;;;;;;17.31;58.96;101528.72;5036698;28;20049;-73
2022/08/07 05:04:37;;;;;;;3.83;2.30;;;;;;;17.37;58.05;101527.66;5036472;28;20017;-73
2022/08/07 05:07:18;;;;;;;5.00;2.30;;;;;;;17.62;57.86;101522.41;5033546;28;20503;-73
2022/08/07 05:09:59;;;;;;;3.90;2.65;;;;;;;17.57;58.73;101530.56;5035589;28;20033;-73
2022/08/07 05:12:40;;;;;;;6.38;2.72;;;;;;;17.78;58.01;101531.66;5036453;28;20032;-74
2022/08/07 05:15:15;;;;;;;6.68;2.92;;;;;;;18.01;56.85;101525.56;5035307;28;20108;-73
2022/08/07 05:17:47;;;;;;;4.75;2.40;;;;;;;18.00;57.33;101521.19;5035074;28;20021;-75
2022/08/07 05:20:16;;;;;;;6.28;2.30;;;;;;;18.24;56.51;101535.41;5036244;28;20029;-74
2022/08/07 05:22:44;;;;;;;5.47;2.70;;;;;;;18.41;56.20;101533.00;5035916;28;20033;-74
2022/08/07 05:25:11;;;;;;;6.70;2.80;;;;;;;18.18;57.06;101535.63;5036320;28;20424;-74
2022/08/07 05:27:38;;;;;;;4.18;2.22;;;;;;;18.37;56.55;101538.50;5036058;28;20113;-75
2022/08/07 05:30:04;;;;;;;3.42;1.83;;;;;;;18.49;56.47;101529.22;5036026;28;20036;-75
2022/08/07 05:32:31;;;;;;;4.63;1.90;;;;;;;18.69;56.01;101534.66;5034801;28;20042;-75
2022/08/07 05:34:57;;;;;;;4.15;2.03;;;;;;;18.68;56.00;101535.59;5035822;28;20496;-75
2022/08/07 05:37:24;;;;;;;4.18;1.88;;;;;;;18.94;55.55;101531.97;5035566;28;20061;-75
2022/08/07 05:39:51;;;;;;;3.53;1.65;;;;;;;19.08;55.14;101529.66;5035942;28;20040;-75
2022/08/07 05:42:16;;;;;;;3.83;1.95;;;;;;;19.18;55.12;101530.16;5034543;28;20288;-75
2022/08/07 05:44:42;;;;;;;3.85;1.90;;;;;;;19.21;55.16;101532.72;5017907;28;20041;-75
2022/08/07 05:47:08;;;;;;;4.85;2.25;;;;;;;19.37;54.99;101541.81;5034511;28;20477;-75
2022/08/07 05:49:34;;;;;;;2.13;1.40;;;;;;;19.49;54.81;101535.13;5034277;28;20201;-75
2022/08/07 05:51:59;;;;;;;4.80;1.60;;;;;;;19.76;54.53;101545.66;5034411;28;20037;-75
2022/08/07 05:54:25;;;;;;;4.45;2.30;;;;;;;19.80;54.29;101545.44;5035705;28;20108;-74
2022/08/07 05:56:53;;;;;;;4.25;2.20;;;;;;;19.81;54.11;101539.16;5033647;28;20173;-74
2022/08/07 05:59:21;;;;;;;4.03;1.60;;;;;;;20.05;53.63;101539.06;5035486;28;20044;-75
2022/08/07 06:01:48;;;;;;;4.57;1.70;;;;;;;20.24;53.27;101539.16;5034305;28;20029;-74
2022/08/07 06:04:15;;;;;;;4.45;2.03;;;;;;;20.30;53.19;101539.72;5035308;28;20078;-74
2022/08/07 06:06:41;;;;;;;3.70;1.95;;;;;;;20.32;53.21;101542.34;5035563;28;20048;-75
2022/08/07 06:09:07;;;;;;;3.83;2.00;;;;;;;20.29;53.38;101543.34;5035219;28;20544;-75
2022/08/07 06:11:33;;;;;;;4.35;1.50;;;;;;;20.18;53.61;101548.28;5035306;28;20100;-75
2022/08/07 06:13:59;;;;;;;4.05;1.77;;;;;;;20.21;53.54;101549.94;5033910;28;20026;-74
2022/08/07 06:16:30;;;;;;;3.03;1.52;;;;;;;20.36;53.41;101547.47;5035273;28;20393;-74
2022/08/07 06:18:57;;;;;;;2.70;1.40;;;;;;;20.57;53.00;101537.69;5035088;28;20029;-75
2022/08/07 06:21:23;;;;;;;2.85;1.45;;;;;;;20.70;52.68;101550.47;5033805;28;20066;-75
2022/08/07 06:23:49;;;;;;;1.85;1.17;;;;;;;20.75;52.46;101541.34;5034140;28;20025;-75
2022/08/07 06:26:14;;;;;;;4.65;1.23;;;;;;;20.87;52.04;101545.25;5033671;28;20170;-75
2022/08/07 06:28:51;;;;;;;3.17;1.30;;;;;;;20.81;52.53;101546.38;5034988;28;20076;-74
2022/08/07 06:31:17;;;;;;;2.47;1.17;;;;;;;20.91;52.07;101549.50;5034318;28;20037;-74
2022/08/07 06:33:43;;;;;;;2.05;1.10;;;;;;;20.99;52.10;101547.34;5033526;28;20036;-74
2022/08/07 06:36:09;;;;;;;2.55;1.10;;;;;;;20.89;52.29;101549.56;5034763;28;20511;-75
2022/08/07 06:38:35;;;;;;;1.90;0.82;;;;;;;20.91;52.21;101553.03;5035044;28;20077;-75
2022/08/07 06:41:03;;;;;;;2.22;1.00;;;;;;;21.05;51.83;101559.53;5017112;28;20030;-75
2022/08/07 06:43:34;;;;;;;2.78;0.93;;;;;;;21.29;51.24;101557.50;5033279;28;20026;-74
2022/08/07 06:46:03;;;;;;;2.00;0.80;;;;;;;21.31;51.16;101561.00;5017281;28;20025;-74
2022/08/07 06:48:29;;;;;;;2.88;0.80;;;;;;;21.30;51.18;101559.25;5033488;28;20087;-75
2022/08/07 06:50:59;;;;;;;4.45;0.90;;;;;;;21.28;51.44;101559.31;5034539;28;20412;-75
2022/08/07 06:53:26;;;;;;;3.72;0.80;;;;;;;21.29;51.15;101558.38;5033153;28;20049;-74
2022/08/07 06:55:53;;;;;;;3.20;0.65;;;;;;;21.52;50.45;101557.31;5033076;28;20032;-75
2022/08/07 06:58:20;;;;;;;1.67;0.60;;;;;;;21.58;50.26;101553.44;5033025;28;20025;-76
2022/08/07 07:00:45;;;;;;;1.60;0.70;;;;;;;21.74;50.09;101561.59;5034243;28;20044;-75
2022/08/07 07:03:11;;;;;;;4.93;0.95;;;;;;;21.57;50.02;101565.09;5032969;28;20377;-75
2022/08/07 07:05:38;;;;;;;2.33;0.70;;;;;;;21.52;50.02;101559.13;5032950;28;20441;-75
2022/08/07 07:08:07;;;;;;;2.88;0.68;;;;;;;21.53;49.89;101560.84;5032040;28;20022;-75
2022/08/07 07:10:34;;;;;;;1.48;0.52;;;;;;;21.73;49.54;101562.53;5034231;28;20044;-75
2022/08/07 07:13:30;;;;;;;2.10;0.60;;;;;;;21.93;48.84;101564.22;5032705;28;20070;-75
2022/08/07 07:16:06;;;;;;;1.00;0.45;;;;;;;21.91;48.95;101563.44;5034193;28;20100;-75
2022/08/07 07:18:39;;;;;;;3.33;1.00;;;;;;;21.85;48.46;101556.56;5034020;28;20025;-75
2022/08/07 07:21:09;;;;;;;3.03;0.43;;;;;;;21.87;47.34;101555.56;5032790;28;20484;-74
2022/08/07 07:23:35;;;;;;;1.55;0.65;;;;;;;21.86;47.89;101560.97;5016253;28;20021;-75
2022/08/07 07:26:08;;;;;;;1.65;0.50;;;;;;;22.11;46.72;101549.91;5033886;28;20044;-75
2022/08/07 07:28:45;;;;;;;2.20;0.70;;;;;;;22.01;47.77;101545.97;5032797;28;20036;-75
2022/08/07 07:31:22;;;;;;;1.95;0.60;;;;;;;22.22;47.32;101555.63;5033843;28;20453;-76
2022/08/07 07:33:53;;;;;;;2.00;0.50;;;;;;;22.30;47.15;101548.06;5033736;28;20075;-75
2022/08/07 07:36:20;;;;;;;3.08;0.70;;;;;;;22.20;47.21;101548.59;5033934;28;20024;-75
2022/08/07 07:38:47;;;;;;;3.28;0.63;;;;;;;22.41;46.59;101554.63;5032355;28;20112;-75
2022/08/07 07:41:15;;;;;;;2.35;0.50;;;;;;;22.29;47.16;101550.78;5033764;28;20025;-76
2022/08/07 07:43:43;;;;;;;1.35;0.50;;;;;;;22.37;46.40;101554.78;5033506;28;20104;-75
2022/08/07 07:46:10;;;;;;;2.63;0.70;;;;;;;22.62;45.83;101556.16;5032246;28;20025;-75
2022/08/07 07:48:38;;;;;;;1.65;0.60;;;;;;;22.70;45.25;101545.03;5033707;28;20029;-75
2022/08/07 07:51:05;;;;;;;2.58;0.52;;;;;;;22.92;45.35;101548.31;5033871;28;20028;-75
2022/08/07 07:53:33;;;;;;;1.42;0.50;;;;;;;22.81;45.92;101543.50;5032332;28;20026;-75
2022/08/07 07:55:59;;;;;;;1.15;0.40;;;;;;;23.26;44.78;101549.13;5033628;28;20037;-75
2022/08/07 07:58:28;;;;;;;2.20;0.63;;;;;;;23.39;43.66;101543.94;5032329;28;20036;-75
2022/08/07 08:00:56;;;;;;;2.05;0.70;;;;;;;23.57;43.63;101549.09;5033520;28;20029;-75
2022/08/07 08:03:23;;;;;;;2.33;0.55;;;;;;;23.68;43.13;101548.53;5032160;28;20036;-75
2022/08/07 08:05:49;;;;;;;2.28;0.50;;;;;;;23.79;42.62;101538.03;5032503;28;20030;-75
2022/08/07 08:08:16;;;;;;;3.08;0.50;;;;;;;24.08;42.29;101544.34;5033556;28;20030;-75
2022/08/07 08:10:43;;;;;;;1.33;0.52;;;;;;;24.38;41.74;101535.44;5033492;28;20492;-75
2022/08/07 08:13:09;;;;;;;1.13;0.28;;;;;;;24.87;40.73;101548.50;5032197;28;20036;-76
2022/08/07 08:15:38;;;;;;;2.58;0.50;;;;;;;24.29;41.45;101538.63;5032085;28;20137;-75
2022/08/07 08:18:08;;;;;;;4.22;0.50;;;;;;;24.40;41.18;101536.19;5033491;28;20049;-75
2022/08/07 08:20:37;;;;;;;3.33;0.52;;;;;;;24.39;41.55;101541.66;5035226;28;20481;-75
2022/08/07 08:28:39;;;;;;;3.03;0.57;;;;;;;23.98;41.70;101542.31;5037637;28;20025;-75
2022/08/07 08:31:09;;;;;;;2.50;0.50;;;;;;;24.23;41.32;101547.06;5019909;28;20025;-75
2022/08/07 08:33:38;;;;;;;2.85;0.50;;;;;;;24.97;40.46;101540.69;5035834;28;20034;-75
2022/08/07 08:36:06;;;;;;;3.30;0.50;;;;;;;25.12;40.09;101541.59;5036123;28;20079;-75
2022/08/07 08:38:37;;;;;;;1.77;0.45;;;;;;;24.83;39.11;101546.97;5036907;28;20532;-75
2022/08/07 08:41:16;;;;;;;1.15;0.35;;;;;;;24.46;40.16;101543.03;5035754;28;20461;-75
2022/08/07 08:44:08;;;;;;;3.92;0.60;;;;;;;24.11;39.91;101543.31;5037002;28;20043;-75
2022/08/07 08:46:33;;;;;;;3.40;0.50;;;;;;;23.87;40.83;101539.41;5036863;28;20079;-75
2022/08/07 08:49:17;;;;;;;1.35;0.30;;;;;;;24.18;40.52;101533.06;5036806;28;20029;-75
2022/08/07 08:52:09;;;;;;;1.08;0.43;;;;;;;24.43;39.45;101544.06;5036799;28;20029;-75
2022/08/07 08:54:41;;;;;;;1.60;0.32;;;;;;;24.23;37.76;101539.88;5036583;28;20034;-75
2022/08/07 08:57:13;;;;;;;0.85;0.30;;;;;;;24.43;37.49;101535.16;5036857;28;20473;-75
2022/08/07 09:00:08;;;;;;;1.73;0.30;;;;;;;24.57;37.27;101527.09;5036791;28;20026;-75
2022/08/07 09:02:52;;;;;;;0.93;0.30;;;;;;;24.73;37.49;101535.06;5035794;28;20314;-74
2022/08/07 09:05:38;;;;;;;0.60;0.22;;;;;;;24.57;37.52;101536.00;5036063;28;20048;-75
2022/08/07 09:08:16;;;;;;;2.47;0.38;;;;;;;24.59;37.54;101527.88;5036793;28;20100;-75
2022/08/07 09:10:55;;;;;;;2.75;0.32;;;;;;;24.60;37.17;101539.47;5035205;28;20487;-75
2022/08/07 09:13:39;;;;;;;3.15;0.60;;;;;;;24.91;36.38;101543.78;5036379;28;20112;-75
2022/08/07 09:16:13;;;;;;;1.55;0.32;;;;;;;25.15;36.81;101527.94;5036208;28;20025;-75
2022/08/07 09:18:54;;;;;;;1.02;0.30;;;;;;;25.66;36.25;101522.78;5036366;28;20100;-76
2022/08/07 09:21:57;;;;;;;0.98;0.25;;;;;;;25.94;34.83;101521.81;5034991;28;20025;-75
2022/08/07 09:24:31;;;;;;;1.67;0.30;;;;;;;25.91;34.87;101524.72;5036069;28;20029;-74
2022/08/07 09:27:29;;;;;;;1.40;0.40;;;;;;;25.41;35.58;101520.84;5036259;28;20037;-75
2022/08/07 09:30:06;;;;;;;2.13;0.30;;;;;;;25.29;35.04;101531.47;5034713;28;20022;-75
2022/08/07 09:32:53;;;;;;;1.15;0.40;;;;;;;24.95;35.81;101530.06;5035485;28;20018;-75
2022/08/07 09:35:39;;;;;;;1.23;0.30;;;;;;;24.75;36.25;101520.56;5036068;28;20029;-76
2022/08/07 09:38:06;;;;;;;1.15;0.40;;;;;;;24.90;37.24;101523.25;5034384;28;20053;-75
2022/08/07 09:40:41;;;;;;;1.73;0.40;;;;;;;24.88;36.42;101523.34;5035955;28;20042;-74
2022/08/07 09:43:26;;;;;;;2.13;0.30;;;;;;;25.29;36.58;101523.41;5036221;28;20022;-74
2022/08/07 09:46:22;;;;;;;0.65;0.22;;;;;;;26.09;35.95;101511.81;5034922;28;20021;-74
2022/08/07 09:49:04;;;;;;;1.38;0.20;;;;;;;26.47;34.49;101509.16;5034493;28;20432;-75
2022/08/07 09:51:48;;;;;;;1.53;0.40;;;;;;;26.63;33.86;101500.84;5035874;28;20029;-75
2022/08/07 09:54:32;;;;;;;1.30;0.30;;;;;;;26.76;33.34;101507.94;5035583;28;20065;-75
2022/08/07 09:57:35;;;;;;;1.23;0.30;;;;;;;27.06;32.50;101504.00;5017743;28;20033;-75
2022/08/07 10:00:06;;;;;;;1.35;0.30;;;;;;;26.89;33.19;101501.66;5035694;28;20100;-75
2022/08/07 10:02:56;;;;;;;5.28;0.40;;;;;;;26.42;32.72;101511.31;5035460;28;20526;-75
2022/08/07 10:05:54;;;;;;;1.95;0.43;;;;;;;26.18;33.26;101500.41;5035518;28;20037;-75
2022/08/07 10:08:38;;;;;;;3.13;0.50;;;;;;;26.37;33.54;101505.34;5034076;28;20025;-75
2022/08/07 10:11:10;;;;;;;1.67;0.60;;;;;;;26.46;34.43;101491.28;5035332;28;20021;-75
2022/08/07 10:14:10;;;;;;;1.65;0.25;;;;;;;26.75;33.10;101495.44;5035251;28;20033;-74
2022/08/07 10:16:46;;;;;;;0.70;0.30;;;;;;;26.91;33.19;101483.56;5035463;28;20033;-75
2022/08/07 10:19:29;;;;;;;1.40;0.20;;;;;;;27.22;32.13;101493.84;5035317;28;20021;-75
2022/08/07 10:22:21;;;;;;;;;;;;;;;26.78;30.58;101497.91;5035370;28;20082;-74
2022/08/07 10:25:12;;;;;;;1.50;0.52;;;;;;;27.11;30.82;101491.06;5030396;28;19916;-75
2022/08/07 10:27:59;;;;;;;0.68;0.30;;;;;;;27.53;30.84;101483.44;5033864;28;20067;-75
2022/08/07 10:30:48;;;;;;;1.08;0.30;;;;;;;27.55;31.04;101492.28;5035060;28;20032;-74
2022/08/07 10:33:39;;;;;;;2.15;0.30;;;;;;;27.08;31.61;101485.84;5033444;28;20536;-75
2022/08/07 10:36:11;;;;;;;1.42;0.40;;;;;;;26.98;32.25;101483.00;5033795;28;20432;-75
2022/08/07 10:38:55;;;;;;;1.88;0.20;;;;;;;26.73;31.72;101473.13;5033293;28;20049;-75
2022/08/07 10:41:31;;;;;;;1.75;0.30;;;;;;;26.91;31.88;101488.94;5034676;28;20033;-75
2022/08/07 10:44:17;;;;;;;1.75;0.30;;;;;;;27.08;31.69;101475.06;5017594;28;20021;-75
2022/08/07 10:46:56;;;;;;;2.13;0.30;;;;;;;27.18;30.96;101478.84;5034695;28;20377;-75
2022/08/07 10:49:33;;;;;;;1.73;0.38;;;;;;;27.33;31.58;101478.66;5033168;28;20021;-75
2022/08/07 10:52:11;;;;;;;2.13;0.40;;;;;;;27.36;31.31;101481.16;5034571;28;20064;-75
2022/08/07 10:54:55;;;;;;;3.03;0.35;;;;;;;27.10;31.86;101467.78;5033301;28;20025;-75
2022/08/07 10:57:38;;;;;;;0.75;0.20;;;;;;;26.81;32.21;101477.97;5034226;28;20041;-75
2022/08/07 11:00:08;;;;;;;3.97;0.30;;;;;;;26.75;32.14;101467.63;5034544;28;20030;-75
2022/08/07 11:02:43;;;;;;;1.55;0.40;;;;;;;26.65;32.75;101467.44;5034228;28;20481;-77
2022/08/07 11:05:30;;;;;;;1.15;0.20;;;;;;;26.88;30.82;101463.06;5034431;28;20029;-77
2022/08/07 11:08:15;;;;;;;3.28;0.43;;;;;;;27.14;30.06;101463.88;5034051;28;20029;-74
2022/08/07 11:10:50;;;;;;;0.98;0.30;;;;;;;27.39;31.22;101470.13;5034282;28;20063;-74
2022/08/07 11:13:37;;;;;;;0.85;0.28;;;;;;;27.50;31.00;101464.78;5034164;28;20363;-75
2022/08/07 11:16:14;;;;;;;1.00;0.40;;;;;;;27.51;30.57;101466.50;5032836;28;20026;-72
2022/08/07 11:18:50;;;;;;;1.05;0.30;;;;;;;27.48;30.98;101461.31;5034073;28;20017;-74
2022/08/07 11:21:35;;;;;;;2.47;0.30;;;;;;;27.67;30.85;101461.66;5032653;28;20083;-74
2022/08/07 11:24:19;;;;;;;1.13;0.28;;;;;;;27.46;30.70;101455.19;5032638;28;20028;-74
2022/08/07 11:26:52;;;;;;;1.38;0.22;;;;;;;27.88;31.42;101455.59;5032627;28;20032;-74
2022/08/07 11:29:32;;;;;;;0.85;0.25;;;;;;;27.81;30.44;101457.03;5033829;28;20021;-76
2022/08/07 11:32:16;;;;;;;3.33;0.30;;;;;;;27.66;31.45;101454.53;5033980;28;20025;-77
2022/08/07 11:35:12;;;;;;;1.55;0.22;;;;;;;27.45;30.78;101457.03;5033760;28;20477;-75
2022/08/07 11:38:05;;;;;;;1.08;0.28;;;;;;;27.20;31.69;101452.59;5033194;28;20137;-75
2022/08/07 11:41:02;;;;;;;1.73;0.57;;;;;;;27.07;32.47;101445.53;5033893;28;20070;-75
2022/08/07 11:43:41;;;;;;;1.80;0.32;;;;;;;27.05;32.68;101448.34;5032535;28;20535;-75
2022/08/07 11:46:37;;;;;;;2.30;0.40;;;;;;;27.04;31.65;101457.41;5032375;28;20499;-75
2022/08/07 11:49:34;;;;;;;0.82;0.38;;;;;;;27.17;31.70;101447.47;5033812;28;20032;-75
2022/08/07 11:52:26;;;;;;;3.78;0.43;;;;;;;27.56;31.08;101448.09;5032222;28;20032;-76